createdAt,value
2019-05-13T00:01:43.503Z,64.00
2019-05-13T00:04:14.119Z,63.60
2019-05-13T00:06:51.429Z,64.00
2019-05-13T00:09:14.166Z,64.60
2019-05-13T00:11:43.780Z,65.50
2019-05-13T00:14:13.455Z,65.20
2019-05-13T00:16:44.704Z,65.40
2019-05-13T00:19:14.296Z,65.70
2019-05-13T00:21:44.440Z,66.60
2019-05-13T00:24:13.786Z,66.40
2019-05-13T00:26:44.506Z,66.70
2019-05-13T00:29:14.175Z,66.30
2019-05-13T00:31:43.859Z,67.10
2019-05-13T00:34:14.375Z,67.40
2019-05-13T00:36:44.564Z,67.50
2019-05-13T00:39:15.356Z,67.60
2019-05-13T00:41:44.361Z,67.70
2019-05-13T00:44:14.298Z,68.40
2019-05-13T00:46:44.094Z,68.30
2019-05-13T00:49:13.409Z,68.50
2019-05-13T00:51:44.418Z,68.90
2019-05-13T00:54:13.406Z,69.40
2019-05-13T00:56:43.572Z,69.70
2019-05-13T00:59:14.163Z,69.10
2019-05-13T01:01:44.112Z,69.90
2019-05-13T01:04:14.371Z,69.80
2019-05-13T01:06:43.602Z,70.00
2019-05-13T01:09:14.373Z,70.00
2019-05-13T01:11:43.767Z,70.60
2019-05-13T01:14:14.283Z,69.90
2019-05-13T01:16:44.373Z,70.60
2019-05-13T01:19:14.349Z,70.80
2019-05-13T01:21:43.543Z,71.00
2019-05-13T01:24:14.474Z,71.20
2019-05-13T01:26:43.862Z,71.60
2019-05-13T01:29:13.453Z,71.70
2019-05-13T01:31:43.466Z,72.40
2019-05-13T01:34:14.274Z,72.80
2019-05-13T01:36:44.651Z,72.50
2019-05-13T01:39:13.850Z,72.10
2019-05-13T01:41:43.828Z,72.50
2019-05-13T01:44:13.961Z,72.20
2019-05-13T01:46:43.697Z,72.70
2019-05-13T01:49:13.641Z,72.90
2019-05-13T01:51:44.018Z,73.20
2019-05-13T01:54:14.216Z,73.80
2019-05-13T01:56:44.112Z,73.60
2019-05-13T01:59:15.194Z,74.10
2019-05-13T02:01:44.228Z,74.10
2019-05-13T02:04:14.208Z,74.00
2019-05-13T02:06:44.315Z,74.30
2019-05-13T02:09:14.199Z,74.40
2019-05-13T02:11:44.532Z,74.60
2019-05-13T02:14:13.517Z,74.40
2019-05-13T02:16:44.470Z,74.80
2019-05-13T02:19:14.293Z,74.30
2019-05-13T02:21:43.882Z,74.10
2019-05-13T02:24:14.498Z,74.30
2019-05-13T02:26:43.867Z,73.70
2019-05-13T02:29:14.391Z,73.70
2019-05-13T02:31:51.157Z,73.70
2019-05-13T02:34:13.891Z,74.00
2019-05-13T02:36:43.869Z,73.40
2019-05-13T02:39:13.226Z,73.30
2019-05-13T02:41:43.173Z,72.90
2019-05-13T02:44:12.411Z,73.00
2019-05-13T02:46:44.361Z,72.80
2019-05-13T02:49:12.271Z,73.80
2019-05-13T02:51:42.894Z,73.00
2019-05-13T02:54:12.344Z,72.90
2019-05-13T02:56:42.404Z,72.90
2019-05-13T02:59:13.106Z,72.90
2019-05-13T03:01:43.224Z,72.80
2019-05-13T03:04:13.185Z,72.60
2019-05-13T03:06:43.541Z,72.50
2019-05-13T03:09:13.004Z,72.20
2019-05-13T03:11:42.535Z,72.40
2019-05-13T03:14:12.863Z,72.10
2019-05-13T03:16:43.543Z,72.40
2019-05-13T03:19:13.464Z,72.40
2019-05-13T03:21:43.071Z,72.40
2019-05-13T03:24:13.410Z,72.20
2019-05-13T03:26:42.855Z,72.50
2019-05-13T03:29:13.186Z,72.50
2019-05-13T03:31:46.221Z,73.00
2019-05-13T03:34:15.682Z,72.70
2019-05-13T03:36:45.739Z,73.00
2019-05-13T03:39:16.462Z,72.70
2019-05-13T03:41:45.309Z,72.40
2019-05-13T03:44:14.069Z,72.50
2019-05-13T03:46:42.922Z,72.20
2019-05-13T03:49:13.713Z,72.10
2019-05-13T03:51:43.063Z,72.00
2019-05-13T03:54:13.052Z,71.90
2019-05-13T03:56:42.682Z,72.00
2019-05-13T03:59:13.266Z,71.90
2019-05-13T04:01:42.831Z,72.20
2019-05-13T04:04:12.565Z,71.90
2019-05-13T04:06:42.891Z,71.90
2019-05-13T04:09:25.008Z,72.10
2019-05-13T04:11:42.728Z,71.80
2019-05-13T04:14:12.618Z,72.00
2019-05-13T04:16:42.808Z,71.70
2019-05-13T04:19:12.402Z,72.00
2019-05-13T04:21:42.976Z,71.70
2019-05-13T04:24:12.294Z,72.00
2019-05-13T04:26:43.274Z,71.70
2019-05-13T04:29:13.201Z,71.80
2019-05-13T04:31:42.600Z,71.70
2019-05-13T04:34:12.499Z,71.70
2019-05-13T04:36:43.084Z,71.60
2019-05-13T04:39:13.045Z,71.60
2019-05-13T04:41:42.522Z,71.60
2019-05-13T04:44:13.109Z,71.50
2019-05-13T04:46:43.359Z,71.50
2019-05-13T04:49:12.631Z,71.40
2019-05-13T04:51:42.212Z,71.40
2019-05-13T04:54:13.019Z,71.60
2019-05-13T04:56:42.347Z,71.60
2019-05-13T04:59:12.568Z,71.40
2019-05-13T05:02:17.570Z,71.30
2019-05-13T05:04:58.184Z,71.30
2019-05-13T05:07:35.884Z,71.20
2019-05-13T05:10:38.158Z,71.20
2019-05-13T05:13:27.432Z,70.90
2019-05-13T05:16:15.844Z,70.60
2019-05-13T05:19:01.787Z,70.70
2019-05-13T05:21:47.224Z,70.80
2019-05-13T05:24:27.668Z,70.60
2019-05-13T05:27:23.501Z,70.80
2019-05-13T05:30:11.388Z,70.50
2019-05-13T05:33:07.399Z,70.40
2019-05-13T05:35:45.085Z,70.90
2019-05-13T05:38:29.004Z,70.00
2019-05-13T05:40:58.969Z,69.90
2019-05-13T05:43:31.525Z,70.00
2019-05-13T05:46:02.607Z,70.60
2019-05-13T05:48:34.114Z,69.60
2019-05-13T05:51:04.548Z,69.40
2019-05-13T05:53:34.869Z,69.50
2019-05-13T05:56:04.440Z,69.30
2019-05-13T05:58:34.662Z,68.80
2019-05-13T06:01:04.590Z,68.70
2019-05-13T06:03:35.914Z,68.70
2019-05-13T06:06:04.651Z,68.80
2019-05-13T06:08:33.486Z,68.70
2019-05-13T06:11:03.565Z,68.30
2019-05-13T06:13:32.375Z,68.30
2019-05-13T06:16:01.853Z,68.20
2019-05-13T06:18:32.621Z,68.00
2019-05-13T06:21:01.812Z,67.80
2019-05-13T06:23:31.277Z,67.80
2019-05-13T06:26:01.864Z,67.80
2019-05-13T06:28:32.302Z,67.50
2019-05-13T06:31:02.570Z,67.20
2019-05-13T06:33:31.761Z,67.20
2019-05-13T06:36:01.218Z,67.60
2019-05-13T06:38:31.600Z,67.30
2019-05-13T06:41:06.671Z,67.50
2019-05-13T06:43:31.531Z,67.30
2019-05-13T06:46:01.843Z,67.10
2019-05-13T06:48:32.304Z,67.10
2019-05-13T06:51:02.605Z,67.30
2019-05-13T06:53:32.218Z,67.20
2019-05-13T06:56:01.613Z,66.60
2019-05-13T06:58:32.478Z,66.20
2019-05-13T07:01:03.820Z,66.00
2019-05-13T07:03:32.304Z,65.60
2019-05-13T07:06:01.825Z,65.40
2019-05-13T07:08:31.405Z,65.60
2019-05-13T07:11:14.098Z,65.60
2019-05-13T07:13:32.261Z,65.80
2019-05-13T07:16:01.439Z,64.50
2019-05-13T07:18:32.337Z,64.60
2019-05-13T07:21:02.211Z,63.60
2019-05-13T07:23:31.811Z,63.70
2019-05-13T07:26:01.798Z,63.70
2019-05-13T07:28:32.308Z,62.80
2019-05-13T07:31:02.144Z,62.10
2019-05-13T07:33:32.031Z,62.70
2019-05-13T07:36:03.219Z,63.10
2019-05-13T07:38:32.782Z,62.80
2019-05-13T07:41:34.760Z,63.60
2019-05-13T07:43:51.771Z,62.70
2019-05-13T07:46:21.827Z,62.70
2019-05-13T07:48:52.162Z,62.70
2019-05-13T07:51:22.170Z,62.10
2019-05-13T07:53:51.749Z,62.30
2019-05-13T07:56:21.878Z,61.80
2019-05-13T07:58:52.328Z,60.80
2019-05-13T08:01:22.186Z,61.40
2019-05-13T08:03:51.724Z,61.20
2019-05-13T08:06:21.981Z,61.60
2019-05-13T08:08:52.302Z,61.50
2019-05-13T08:11:22.366Z,61.60
2019-05-13T08:13:51.850Z,61.10
2019-05-13T08:16:22.259Z,61.50
2019-05-13T08:18:52.336Z,61.00
2019-05-13T08:21:21.575Z,60.90
2019-05-13T08:23:52.499Z,60.70
2019-05-13T08:26:21.707Z,61.10
2019-05-13T08:29:00.447Z,60.40
2019-05-13T08:31:21.586Z,60.10
2019-05-13T08:33:51.886Z,60.20
2019-05-13T08:36:23.255Z,59.90
2019-05-13T08:38:51.889Z,58.50
2019-05-13T08:41:23.580Z,59.40
2019-05-13T08:43:52.397Z,59.40
2019-05-13T08:46:21.929Z,60.20
2019-05-13T08:48:51.796Z,59.40
2019-05-13T08:51:22.131Z,58.90
2019-05-13T08:53:51.679Z,58.40
2019-05-13T08:56:21.775Z,58.30
2019-05-13T08:58:52.043Z,58.20
2019-05-13T09:01:22.663Z,58.30
2019-05-13T09:03:52.205Z,57.90
2019-05-13T09:06:22.075Z,58.40
2019-05-13T09:08:53.959Z,58.10
2019-05-13T09:11:22.224Z,57.60
2019-05-13T09:13:51.679Z,58.10
2019-05-13T09:16:21.444Z,57.90
2019-05-13T09:18:52.120Z,56.40
2019-05-13T09:21:22.432Z,56.40
2019-05-13T09:23:51.599Z,56.10
2019-05-13T09:26:22.557Z,56.00
2019-05-13T09:28:52.147Z,55.40
2019-05-13T09:33:52.187Z,55.90
2019-05-13T09:36:21.768Z,55.50
2019-05-13T09:38:52.532Z,55.50
2019-05-13T09:41:21.525Z,55.90
2019-05-13T09:43:51.396Z,56.00
2019-05-13T09:46:22.628Z,56.10
2019-05-13T09:48:51.690Z,55.20
2019-05-13T09:51:21.655Z,54.70
2019-05-13T09:53:51.958Z,54.50
2019-05-13T09:56:22.413Z,54.60
2019-05-13T09:58:51.471Z,54.40
2019-05-13T10:01:22.643Z,54.70
2019-05-13T10:03:54.822Z,55.00
2019-05-13T10:06:22.200Z,54.50
2019-05-13T10:08:52.694Z,54.20
2019-05-13T10:11:21.903Z,54.10
2019-05-13T10:13:51.603Z,54.80
2019-05-13T10:16:22.029Z,53.80
2019-05-13T10:18:52.477Z,53.10
2019-05-13T10:21:21.938Z,52.40
2019-05-13T10:23:51.252Z,52.30
2019-05-13T10:26:22.533Z,53.10
2019-05-13T10:28:50.876Z,52.80
2019-05-13T10:31:21.814Z,53.40
2019-05-13T10:33:51.391Z,53.70
2019-05-13T10:36:22.287Z,53.30
2019-05-13T10:38:52.141Z,52.40
2019-05-13T10:41:22.219Z,52.50
2019-05-13T10:43:52.020Z,51.30
2019-05-13T10:46:22.130Z,51.50
2019-05-13T10:48:52.639Z,51.40
2019-05-13T10:51:22.382Z,51.50
2019-05-13T10:53:53.554Z,52.30
2019-05-13T10:56:21.812Z,52.80
2019-05-13T10:58:53.348Z,51.10
2019-05-13T11:01:22.521Z,51.20
2019-05-13T11:03:52.419Z,52.00
2019-05-13T11:06:21.927Z,51.90
2019-05-13T11:08:53.106Z,49.40
2019-05-13T11:11:22.060Z,49.40
2019-05-13T11:13:58.772Z,48.70
2019-05-13T11:16:22.555Z,48.90
2019-05-13T11:18:52.008Z,47.90
2019-05-13T11:21:22.190Z,47.30
2019-05-13T11:23:51.819Z,49.30
2019-05-13T11:26:21.990Z,49.50
2019-05-13T11:28:52.155Z,48.30
2019-05-13T11:31:22.467Z,48.00
2019-05-13T11:33:52.213Z,47.70
2019-05-13T11:36:23.256Z,48.00
2019-05-13T11:38:53.074Z,48.10
2019-05-13T11:41:23.049Z,48.40
2019-05-13T11:44:09.281Z,48.20
2019-05-13T11:46:22.742Z,48.10
2019-05-13T11:48:52.049Z,48.20
2019-05-13T11:51:24.097Z,47.70
2019-05-13T11:53:52.457Z,48.70
2019-05-13T11:56:23.022Z,47.50
2019-05-13T11:58:53.410Z,47.60
2019-05-13T12:01:23.040Z,48.40
2019-05-13T12:03:53.129Z,47.10
2019-05-13T12:06:23.212Z,47.30
2019-05-13T12:08:55.310Z,47.10
2019-05-13T12:11:22.840Z,47.40
2019-05-13T12:13:52.772Z,46.60
2019-05-13T12:16:22.821Z,46.50
2019-05-13T12:18:52.832Z,47.00
2019-05-13T12:21:21.841Z,46.30
2019-05-13T12:23:52.751Z,46.10
2019-05-13T12:26:23.788Z,46.70
2019-05-13T12:28:53.648Z,46.80
2019-05-13T12:31:22.444Z,46.00
2019-05-13T12:33:52.341Z,46.80
2019-05-13T12:36:23.563Z,46.70
2019-05-13T12:38:53.627Z,47.00
2019-05-13T12:41:23.053Z,45.90
2019-05-13T12:43:53.936Z,45.90
2019-05-13T12:46:24.652Z,45.90
2019-05-13T12:48:53.249Z,45.20
2019-05-13T12:51:22.732Z,45.40
2019-05-13T12:53:52.656Z,45.70
2019-05-13T12:56:23.622Z,46.20
2019-05-13T12:58:52.406Z,44.10
2019-05-13T13:01:23.931Z,44.30
2019-05-13T13:03:52.082Z,44.50
2019-05-13T13:06:31.066Z,44.90
2019-05-13T13:08:52.206Z,44.20
2019-05-13T13:11:22.841Z,44.70
2019-05-13T13:13:59.333Z,44.50
2019-05-13T13:16:21.850Z,43.80
2019-05-13T13:18:52.533Z,43.60
2019-05-13T13:21:24.384Z,43.00
2019-05-13T13:23:51.535Z,43.10
2019-05-13T13:26:21.726Z,43.00
2019-05-13T13:28:55.910Z,40.50
2019-05-13T13:31:24.958Z,40.80
2019-05-13T13:33:55.283Z,41.00
2019-05-13T13:36:24.176Z,40.50
2019-05-13T13:38:56.056Z,40.00
2019-05-13T13:41:23.060Z,38.20
2019-05-13T13:43:53.927Z,36.60
2019-05-13T13:46:36.005Z,36.00
2019-05-13T13:48:55.376Z,35.70
2019-05-13T13:51:26.625Z,36.30
2019-05-13T13:53:56.458Z,36.70
2019-05-13T13:56:25.425Z,35.60
2019-05-13T13:58:54.514Z,35.60
2019-05-13T14:01:27.210Z,35.40
2019-05-13T14:03:53.688Z,36.20
2019-05-13T14:06:25.162Z,55.90
2019-05-13T14:07:22.078Z,37.10
2019-05-13T14:08:52.998Z,37.50
2019-05-13T14:11:23.167Z,37.50
2019-05-13T14:13:52.118Z,38.10
2019-05-13T14:16:29.185Z,38.40
2019-05-13T14:18:52.273Z,38.80
2019-05-13T14:21:21.698Z,39.30
2019-05-13T14:23:52.001Z,40.00
2019-05-13T14:26:22.135Z,40.10
2019-05-13T14:28:53.681Z,40.50
2019-05-13T14:31:21.673Z,40.70
2019-05-13T14:33:52.034Z,41.50
2019-05-13T14:36:23.075Z,42.20
2019-05-13T14:38:52.670Z,41.30
2019-05-13T14:41:22.082Z,41.70
2019-05-13T14:43:51.698Z,41.00
2019-05-13T14:46:25.215Z,41.90
2019-05-13T14:48:51.020Z,41.00
2019-05-13T14:51:21.836Z,41.50
2019-05-13T14:53:52.048Z,41.00
2019-05-13T14:56:22.159Z,40.80
2019-05-13T14:58:52.089Z,40.80
2019-05-13T15:01:22.784Z,40.90
2019-05-13T15:03:52.134Z,40.80
2019-05-13T15:06:22.080Z,41.50
2019-05-13T15:08:59.485Z,41.60
2019-05-13T15:11:22.039Z,41.90
2019-05-13T15:13:51.817Z,41.00
2019-05-13T15:16:22.450Z,41.60
2019-05-13T15:18:52.504Z,41.90
2019-05-13T15:21:21.489Z,42.00
2019-05-13T15:23:51.753Z,42.50
2019-05-13T15:26:22.288Z,43.00
2019-05-13T15:28:52.188Z,42.80
2019-05-13T15:31:22.052Z,42.50
2019-05-13T15:33:52.421Z,43.10
2019-05-13T15:36:22.628Z,43.00
2019-05-13T15:38:52.094Z,42.40
2019-05-13T15:41:20.955Z,42.40
2019-05-13T15:43:51.880Z,42.70
2019-05-13T15:46:22.007Z,43.10
2019-05-13T15:48:51.403Z,43.00
2019-05-13T15:51:22.158Z,42.90
2019-05-13T15:53:51.937Z,43.20
2019-05-13T15:56:22.356Z,43.10
2019-05-13T15:58:52.913Z,43.10
2019-05-13T16:01:22.871Z,43.60
2019-05-13T16:03:52.515Z,43.70
2019-05-13T16:06:21.510Z,43.70
2019-05-13T16:08:51.872Z,43.80
2019-05-13T16:11:21.953Z,44.10
2019-05-13T16:13:51.744Z,44.40
2019-05-13T16:16:21.766Z,45.10
2019-05-13T16:18:51.723Z,45.20
2019-05-13T16:21:20.481Z,45.40
2019-05-13T16:23:51.372Z,45.70
2019-05-13T16:26:19.687Z,45.80
2019-05-13T16:28:48.446Z,46.30
2019-05-13T16:31:17.194Z,46.50
2019-05-13T16:33:46.016Z,46.50
2019-05-13T16:36:14.772Z,46.20
2019-05-13T16:38:43.488Z,46.10
2019-05-13T16:41:12.645Z,46.50
2019-05-13T16:43:42.655Z,47.20
2019-05-13T16:46:12.125Z,47.20
2019-05-13T16:48:41.691Z,47.20
2019-05-13T16:51:12.549Z,47.30
2019-05-13T16:53:42.181Z,47.40
2019-05-13T16:56:25.867Z,47.50
2019-05-13T16:58:41.959Z,47.80
2019-05-13T17:01:11.678Z,48.00
2019-05-13T17:03:41.489Z,48.30
2019-05-13T17:06:12.602Z,48.50
2019-05-13T17:08:42.409Z,48.60
2019-05-13T17:11:11.934Z,49.00
2019-05-13T17:13:42.127Z,48.90
2019-05-13T17:16:11.238Z,49.00
2019-05-13T17:18:41.743Z,48.90
2019-05-13T17:21:10.415Z,48.90
2019-05-13T17:23:41.637Z,49.10
2019-05-13T17:26:11.610Z,49.10
2019-05-13T17:28:41.705Z,49.10
2019-05-13T17:31:11.523Z,49.10
2019-05-13T17:33:40.708Z,49.30
2019-05-13T17:36:09.511Z,49.40
2019-05-13T17:38:38.285Z,49.60
2019-05-13T17:41:07.132Z,49.70
2019-05-13T17:43:35.943Z,49.90
2019-05-13T17:46:04.700Z,50.30
2019-05-13T17:48:33.556Z,50.80
2019-05-13T17:51:02.301Z,51.10
2019-05-13T17:53:32.468Z,51.30
2019-05-13T17:56:02.349Z,51.50
2019-05-13T17:58:31.562Z,51.60
2019-05-13T18:01:01.674Z,51.80
2019-05-13T18:03:32.007Z,52.50
2019-05-13T18:06:02.280Z,52.50
2019-05-13T18:08:32.140Z,53.40
2019-05-13T18:11:02.216Z,53.20
2019-05-13T18:13:31.663Z,53.40
2019-05-13T18:16:02.499Z,53.50
2019-05-13T18:18:42.379Z,53.50
2019-05-13T18:21:01.638Z,53.60
2019-05-13T18:23:30.516Z,53.90
2019-05-13T18:26:01.704Z,53.70
2019-05-13T18:28:31.436Z,54.00
2019-05-13T18:31:01.730Z,53.80
2019-05-13T18:33:31.976Z,53.90
2019-05-13T18:36:03.786Z,54.00
2019-05-13T18:38:32.526Z,54.00
2019-05-13T18:41:01.921Z,54.20
2019-05-13T18:43:32.108Z,54.00
2019-05-13T18:46:02.099Z,54.20
2019-05-13T18:48:32.221Z,54.40
2019-05-13T18:51:01.446Z,54.40
2019-05-13T18:53:32.125Z,54.60
2019-05-13T18:56:01.969Z,55.10
2019-05-13T18:58:31.669Z,55.00
2019-05-13T19:01:01.324Z,55.40
2019-05-13T19:03:32.418Z,55.50
2019-05-13T19:06:00.881Z,55.70
2019-05-13T19:08:31.862Z,55.80
2019-05-13T19:11:01.160Z,55.90
2019-05-13T19:13:32.334Z,55.80
2019-05-13T19:16:02.389Z,56.20
2019-05-13T19:18:32.024Z,56.20
2019-05-13T19:21:01.924Z,56.20
2019-05-13T19:23:32.301Z,56.60
2019-05-13T19:26:03.008Z,56.80
2019-05-13T19:28:31.806Z,56.90
2019-05-13T19:31:02.321Z,56.90
2019-05-13T19:33:31.197Z,57.00
2019-05-13T19:36:01.349Z,57.10
2019-05-13T19:38:31.916Z,57.50
2019-05-13T19:41:01.798Z,57.70
2019-05-13T19:43:32.394Z,57.50
2019-05-13T19:46:01.755Z,57.50
2019-05-13T19:48:32.674Z,57.50
2019-05-13T19:51:01.669Z,57.80
2019-05-13T19:53:31.957Z,57.70
2019-05-13T19:56:01.553Z,57.70
2019-05-13T19:58:32.346Z,57.80
2019-05-13T20:01:00.802Z,57.90
2019-05-13T20:03:31.772Z,57.70
2019-05-13T20:06:02.066Z,57.70
2019-05-13T20:08:32.017Z,57.70
2019-05-13T20:11:02.091Z,57.60
2019-05-13T20:13:31.067Z,57.60
2019-05-13T20:16:01.435Z,57.50
2019-05-13T20:18:32.054Z,57.50
2019-05-13T20:21:01.308Z,57.70
2019-05-13T20:23:32.051Z,57.60
2019-05-13T20:26:00.567Z,57.50
2019-05-13T20:28:31.445Z,57.60
2019-05-13T20:31:01.780Z,57.60
2019-05-13T20:33:32.065Z,57.40
2019-05-13T20:36:01.612Z,57.70
2019-05-13T20:38:31.651Z,57.40
2019-05-13T20:41:01.286Z,57.40
2019-05-13T20:43:32.506Z,57.50
2019-05-13T20:46:01.948Z,57.50
2019-05-13T20:48:32.002Z,57.40
2019-05-13T20:51:02.597Z,57.40
2019-05-13T20:53:31.469Z,57.40
2019-05-13T20:56:01.735Z,57.40
2019-05-13T20:58:31.865Z,57.40
2019-05-13T21:01:02.406Z,57.30
2019-05-13T21:03:31.744Z,57.40
2019-05-13T21:06:00.540Z,57.40
2019-05-13T21:08:31.930Z,57.50
2019-05-13T21:11:02.077Z,57.70
2019-05-13T21:13:31.817Z,57.70
2019-05-13T21:16:02.265Z,57.60
2019-05-13T21:18:31.607Z,57.70
2019-05-13T21:21:00.638Z,57.70
2019-05-13T21:23:31.244Z,57.90
2019-05-13T21:26:01.667Z,58.10
2019-05-13T21:28:30.166Z,58.20
2019-05-13T21:30:58.931Z,58.40
2019-05-13T21:33:27.768Z,59.10
2019-05-13T21:35:56.515Z,58.40
2019-05-13T21:38:25.234Z,58.30
2019-05-13T21:40:54.019Z,58.60
2019-05-13T21:43:22.771Z,58.60
2019-05-13T21:45:52.334Z,58.40
2019-05-13T21:48:21.760Z,58.40
2019-05-13T21:50:51.631Z,58.50
2019-05-13T21:53:21.744Z,58.50
2019-05-13T21:55:51.987Z,58.60
2019-05-13T21:58:22.253Z,58.60
2019-05-13T22:00:52.290Z,58.60
2019-05-13T22:03:21.036Z,58.70
2019-05-13T22:05:51.477Z,58.70
2019-05-13T22:08:21.572Z,59.20
2019-05-13T22:10:52.490Z,59.20
2019-05-13T22:13:20.993Z,59.20
2019-05-13T22:15:52.151Z,59.30
2019-05-13T22:18:20.198Z,59.40
2019-05-13T22:20:53.249Z,59.30
2019-05-13T22:23:19.403Z,59.30
2019-05-13T22:25:48.075Z,59.20
2019-05-13T22:28:16.823Z,59.30
2019-05-13T22:30:45.623Z,59.80
2019-05-13T22:33:14.367Z,59.80
2019-05-13T22:35:43.124Z,59.80
2019-05-13T22:38:12.424Z,59.80
2019-05-13T22:40:41.966Z,60.20
2019-05-13T22:43:12.145Z,60.30
2019-05-13T22:45:41.871Z,60.10
2019-05-13T22:48:12.078Z,60.40
2019-05-13T22:50:42.593Z,60.30
2019-05-13T22:53:12.000Z,60.30
2019-05-13T22:55:41.834Z,60.50
2019-05-13T22:58:10.701Z,60.60
2019-05-13T23:00:39.410Z,60.70
2019-05-13T23:03:08.147Z,60.90
2019-05-13T23:05:36.908Z,61.50
2019-05-13T23:08:05.753Z,61.60
2019-05-13T23:10:34.495Z,61.80
2019-05-13T23:13:03.309Z,61.70
2019-05-13T23:15:32.112Z,62.30
2019-05-13T23:18:01.343Z,61.50
2019-05-13T23:20:31.774Z,61.30
2019-05-13T23:23:01.307Z,61.90
2019-05-13T23:25:31.986Z,61.70
2019-05-13T23:28:00.529Z,61.50
2019-05-13T23:30:31.110Z,61.40
2019-05-13T23:33:02.073Z,61.40
2019-05-13T23:35:32.099Z,61.50
2019-05-13T23:38:01.607Z,61.50
2019-05-13T23:40:31.614Z,61.90
2019-05-13T23:43:02.108Z,61.80
2019-05-13T23:45:31.206Z,61.90
2019-05-13T23:48:01.633Z,61.80
2019-05-13T23:50:32.082Z,61.80
2019-05-13T23:53:01.100Z,62.00
2019-05-13T23:55:31.976Z,62.00
2019-05-13T23:58:01.699Z,62.10
